Time;durP1;ratioP1;P1;durP2;ratioP2;P2;SDS_P1;SDS_P2;PMS_P1;PMS_P2;Temp;Humidity;BMP_temperature;BMP_pressure;BME280_temperature;BME280_humidity;BME280_pressure;Samples;Min_cycle;Max_cycle;Signal;HPM_P1;HPM_P2
2023/07/28 00:00:38;;;;;;;16.50;8.60;;;17.70;99.90;;;;;;4985098;28;20046;-36
2023/07/28 00:03:03;;;;;;;12.38;7.15;;;17.70;99.90;;;;;;4983883;28;20069;-35
2023/07/28 00:05:29;;;;;;;14.80;7.35;;;17.70;99.90;;;;;;4982872;28;20483;-35
2023/07/28 00:07:54;;;;;;;13.93;7.00;;;17.70;99.90;;;;;;4984497;28;20097;-36
2023/07/28 00:10:20;;;;;;;15.95;7.10;;;17.80;99.90;;;;;;4987959;28;20055;-35
2023/07/28 00:12:46;;;;;;;13.82;6.43;;;17.70;99.90;;;;;;4987809;28;20504;-35
2023/07/28 00:15:11;;;;;;;13.13;6.97;;;17.70;99.90;;;;;;4987448;28;20144;-35
2023/07/28 00:17:37;;;;;;;12.73;6.35;;;17.80;99.90;;;;;;4983729;28;20054;-36
2023/07/28 00:20:03;;;;;;;16.42;7.05;;;17.70;99.90;;;;;;4985575;28;20053;-35
2023/07/28 00:22:29;;;;;;;17.70;6.80;;;17.70;99.90;;;;;;4987787;28;20125;-35
2023/07/28 00:24:54;;;;;;;14.98;6.45;;;17.70;99.90;;;;;;4981758;28;20061;-36
2023/07/28 00:27:20;;;;;;;11.93;6.00;;;17.70;99.90;;;;;;4980346;28;20046;-37
2023/07/28 00:29:46;;;;;;;17.90;6.50;;;17.70;99.90;;;;;;4985414;28;20054;-35
2023/07/28 00:32:11;;;;;;;13.20;6.90;;;17.70;99.90;;;;;;4982198;28;20068;-35
2023/07/28 00:34:37;;;;;;;14.00;6.32;;;17.70;99.90;;;;;;4984807;28;20120;-35
2023/07/28 00:37:03;;;;;;;16.38;6.85;;;17.80;99.90;;;;;;4983761;28;20113;-36
2023/07/28 00:39:28;;;;;;;12.63;6.25;;;17.80;99.90;;;;;;4981638;28;20084;-35
2023/07/28 00:41:54;;;;;;;13.93;6.97;;;17.70;99.90;;;;;;4975067;28;20054;-36
2023/07/28 00:44:20;;;;;;;13.05;6.85;;;17.70;99.90;;;;;;4983364;28;20441;-35
2023/07/28 00:46:45;;;;;;;17.42;7.18;;;17.80;99.90;;;;;;4982322;28;20050;-35
2023/07/28 00:49:11;;;;;;;14.20;6.78;;;17.70;99.90;;;;;;4978433;28;20042;-35
2023/07/28 00:51:38;;;;;;;13.32;6.78;;;17.70;99.90;;;;;;4977650;28;20061;-35
2023/07/28 00:54:06;;;;;;;17.77;7.70;;;17.70;99.90;;;;;;4979765;28;20042;-36
2023/07/28 00:56:32;;;;;;;20.15;7.65;;;17.70;99.90;;;;;;4981875;28;20050;-36
2023/07/28 00:58:58;;;;;;;25.13;7.75;;;17.80;99.90;;;;;;4985482;28;20064;-36
2023/07/28 01:01:27;;;;;;;14.73;7.80;;;17.70;99.90;;;;;;4985598;28;20054;-36
2023/07/28 01:03:53;;;;;;;13.10;6.82;;;17.70;99.90;;;;;;4980240;28;20070;-35
2023/07/28 01:06:29;;;;;;;14.82;7.20;;;17.70;99.90;;;;;;4983796;28;20061;-35
2023/07/28 01:08:57;;;;;;;18.52;7.00;;;17.70;99.90;;;;;;4984788;28;20102;-35
2023/07/28 01:11:23;;;;;;;12.75;7.18;;;17.70;99.90;;;;;;4985429;28;20497;-37
2023/07/28 01:13:48;;;;;;;14.98;8.00;;;17.70;99.90;;;;;;4980779;28;20077;-35
2023/07/28 01:16:15;;;;;;;19.42;7.10;;;17.70;99.90;;;;;;4984167;28;20073;-35
2023/07/28 01:18:40;;;;;;;12.85;6.68;;;17.80;99.90;;;;;;4981569;28;20042;-35
2023/07/28 01:21:13;;;;;;;15.88;7.03;;;17.70;99.90;;;;;;4982537;28;20061;-35
2023/07/28 01:24:02;;;;;;;15.23;6.57;;;17.70;99.90;;;;;;4977243;28;20472;-35
2023/07/28 01:26:47;;;;;;;19.67;7.60;;;17.70;99.90;;;;;;4985115;28;20587;-35
2023/07/28 01:29:15;;;;;;;16.10;7.18;;;17.70;99.90;;;;;;4983092;28;20049;-35
2023/07/28 01:31:40;;;;;;;14.63;6.82;;;17.70;99.90;;;;;;4978997;28;20058;-35
2023/07/28 01:34:06;;;;;;;13.98;6.68;;;17.70;99.90;;;;;;4980134;28;20058;-35
2023/07/28 01:36:32;;;;;;;14.40;7.13;;;17.70;99.90;;;;;;4979997;28;20062;-35
2023/07/28 01:38:58;;;;;;;13.80;6.97;;;17.80;99.90;;;;;;4978748;28;20058;-35
2023/07/28 01:41:23;;;;;;;16.88;7.45;;;17.70;99.90;;;;;;4985059;28;20042;-35
2023/07/28 01:43:49;;;;;;;15.07;6.93;;;17.70;99.90;;;;;;4983234;28;20129;-35
2023/07/28 01:46:15;;;;;;;13.88;6.70;;;17.70;99.90;;;;;;4984563;28;20068;-38
2023/07/28 01:48:40;;;;;;;13.90;6.75;;;17.70;99.90;;;;;;4980445;28;20046;-35
2023/07/28 01:51:06;;;;;;;15.43;6.88;;;17.70;99.90;;;;;;4979147;28;20511;-35
2023/07/28 01:53:31;;;;;;;17.02;6.95;;;17.70;99.90;;;;;;4978583;28;20096;-35
2023/07/28 01:55:57;;;;;;;16.50;7.03;;;17.70;99.90;;;;;;4984577;28;20105;-35
2023/07/28 01:58:23;;;;;;;13.80;6.90;;;17.70;99.90;;;;;;4981940;28;20073;-36
2023/07/28 02:00:48;;;;;;;15.02;7.25;;;17.70;99.90;;;;;;4984803;28;20054;-35
2023/07/28 02:03:14;;;;;;;14.20;6.57;;;17.70;99.90;;;;;;4980542;28;20441;-35
2023/07/28 02:05:39;;;;;;;18.42;7.40;;;17.70;99.90;;;;;;4984684;28;20138;-36
2023/07/28 02:08:05;;;;;;;18.95;7.07;;;17.70;99.90;;;;;;4983066;28;20412;-35
2023/07/28 02:10:31;;;;;;;13.93;7.00;;;17.70;99.90;;;;;;4984717;28;20474;-35
2023/07/28 02:12:57;;;;;;;14.05;6.53;;;17.70;99.90;;;;;;4984057;28;20069;-35
2023/07/28 02:15:22;;;;;;;14.30;6.18;;;17.70;99.90;;;;;;4985877;28;20049;-35
2023/07/28 02:17:49;;;;;;;13.75;6.22;;;17.80;99.90;;;;;;4986207;28;20672;-35
2023/07/28 02:20:15;;;;;;;13.63;5.72;;;17.70;99.90;;;;;;4978587;28;20368;-36
2023/07/28 02:22:44;;;;;;;14.48;6.00;;;17.70;99.90;;;;;;4978720;28;20520;-35
2023/07/28 02:25:10;;;;;;;15.48;6.63;;;17.70;99.90;;;;;;4972612;28;20046;-35
2023/07/28 02:27:39;;;;;;;17.77;6.35;;;17.70;99.90;;;;;;4981157;28;20050;-35
2023/07/28 02:30:06;;;;;;;17.55;7.00;;;17.70;99.90;;;;;;4987729;28;20050;-35
2023/07/28 02:32:32;;;;;;;14.07;6.07;;;17.70;99.90;;;;;;4986909;28;20050;-36
2023/07/28 02:34:58;;;;;;;13.38;6.18;;;17.70;99.90;;;;;;4983049;28;20072;-35
2023/07/28 02:37:24;;;;;;;14.15;6.30;;;17.80;99.90;;;;;;4985185;28;20042;-35
2023/07/28 02:39:50;;;;;;;15.85;6.05;;;17.80;99.90;;;;;;4982715;28;20050;-35
2023/07/28 02:42:16;;;;;;;17.55;7.55;;;17.70;99.90;;;;;;4984686;28;20101;-35
2023/07/28 02:44:41;;;;;;;16.70;6.30;;;17.80;99.90;;;;;;4984610;28;20085;-35
2023/07/28 02:47:07;;;;;;;13.93;5.93;;;17.80;99.90;;;;;;4984726;28;20046;-35
2023/07/28 02:49:33;;;;;;;15.82;6.35;;;17.80;99.90;;;;;;4985844;28;20050;-35
2023/07/28 02:51:58;;;;;;;12.30;6.00;;;17.80;99.90;;;;;;4987972;28;20563;-35
2023/07/28 02:54:25;;;;;;;14.65;6.20;;;17.80;99.90;;;;;;4984018;28;20050;-35
2023/07/28 02:56:51;;;;;;;14.98;6.63;;;17.80;99.90;;;;;;4988833;28;20057;-35
2023/07/28 02:59:16;;;;;;;16.05;6.40;;;17.80;99.90;;;;;;4985352;28;20142;-35
2023/07/28 03:01:42;;;;;;;12.38;6.63;;;17.80;99.90;;;;;;4989021;28;20141;-36
2023/07/28 03:04:08;;;;;;;15.35;6.45;;;17.80;99.90;;;;;;4984713;28;20496;-35
2023/07/28 03:06:33;;;;;;;14.68;6.20;;;17.80;99.90;;;;;;4982303;28;20062;-35
2023/07/28 03:08:59;;;;;;;12.73;6.13;;;17.80;99.90;;;;;;4983776;28;20050;-35
2023/07/28 03:11:25;;;;;;;9.68;5.53;;;17.80;99.90;;;;;;4979967;28;20065;-35
2023/07/28 03:13:51;;;;;;;15.27;6.30;;;17.80;99.90;;;;;;4982456;28;20046;-35
2023/07/28 03:16:16;;;;;;;18.25;6.97;;;17.80;99.90;;;;;;4978426;28;22715;-35
2023/07/28 03:18:42;;;;;;;17.83;6.38;;;17.90;99.90;;;;;;4983183;28;20444;-35
2023/07/28 03:21:11;;;;;;;17.52;7.53;;;17.80;99.90;;;;;;4982137;28;20045;-35
2023/07/28 03:23:37;;;;;;;12.05;5.75;;;17.80;99.90;;;;;;4982862;28;20073;-35
2023/07/28 03:26:02;;;;;;;13.73;6.40;;;17.80;99.90;;;;;;4983705;28;20054;-36
2023/07/28 03:28:28;;;;;;;14.32;6.85;;;17.80;99.90;;;;;;4979457;28;20099;-36
2023/07/28 03:30:54;;;;;;;14.52;6.53;;;17.80;99.90;;;;;;4980157;28;20050;-35
2023/07/28 03:33:19;;;;;;;14.23;7.10;;;17.80;99.90;;;;;;4977814;28;20070;-35
2023/07/28 03:35:45;;;;;;;18.88;7.22;;;17.80;99.90;;;;;;4981216;28;20061;-35
2023/07/28 03:38:10;;;;;;;19.13;7.00;;;17.80;99.90;;;;;;4983274;28;20047;-35
2023/07/28 03:40:36;;;;;;;17.70;7.13;;;17.80;99.90;;;;;;4985756;28;20042;-35
2023/07/28 03:43:02;;;;;;;21.45;7.28;;;17.80;99.90;;;;;;4985158;28;20105;-35
2023/07/28 03:45:28;;;;;;;14.18;7.90;;;17.80;99.90;;;;;;4990267;28;20092;-35
2023/07/28 03:47:54;;;;;;;13.18;6.95;;;17.80;99.90;;;;;;4988562;28;20052;-35
2023/07/28 03:50:20;;;;;;;16.35;6.75;;;17.80;99.90;;;;;;4982751;28;20058;-35
2023/07/28 03:52:45;;;;;;;14.32;6.57;;;17.80;99.90;;;;;;4987348;28;20054;-35
2023/07/28 03:55:11;;;;;;;18.23;7.00;;;17.80;99.90;;;;;;4987130;28;20054;-35
2023/07/28 03:57:37;;;;;;;14.90;7.80;;;17.80;99.90;;;;;;4987918;28;20046;-35
2023/07/28 04:00:03;;;;;;;14.48;6.85;;;17.80;99.90;;;;;;4984465;28;20085;-35
2023/07/28 04:02:29;;;;;;;15.13;7.57;;;17.80;99.90;;;;;;4986765;28;20500;-35
2023/07/28 04:04:57;;;;;;;19.73;7.88;;;17.80;99.90;;;;;;4980172;28;20049;-35
2023/07/28 04:07:22;;;;;;;16.27;7.55;;;17.80;99.90;;;;;;4985370;28;20042;-35
2023/07/28 04:09:48;;;;;;;15.15;7.03;;;17.80;99.90;;;;;;4987394;28;20050;-35
2023/07/28 04:12:14;;;;;;;13.77;6.88;;;17.80;99.90;;;;;;4983430;28;20081;-36
2023/07/28 04:14:40;;;;;;;18.30;7.65;;;17.80;99.90;;;;;;4983661;28;20046;-35
2023/07/28 04:17:06;;;;;;;16.63;7.93;;;17.80;99.90;;;;;;4981594;28;20045;-35
2023/07/28 04:19:33;;;;;;;20.80;7.93;;;17.80;99.90;;;;;;4987215;28;20116;-36
2023/07/28 04:22:00;;;;;;;15.55;7.70;;;17.80;99.90;;;;;;4981217;28;20043;-35
2023/07/28 04:24:26;;;;;;;15.82;7.45;;;17.90;99.90;;;;;;4984566;28;20042;-35
2023/07/28 04:26:51;;;;;;;16.40;7.80;;;17.90;99.90;;;;;;4986796;28;20472;-35
2023/07/28 04:29:17;;;;;;;22.90;8.20;;;17.90;99.90;;;;;;4983091;28;20089;-35
2023/07/28 04:31:42;;;;;;;20.83;7.80;;;17.90;99.90;;;;;;4979585;28;20072;-35
2023/07/28 04:34:08;;;;;;;17.30;8.00;;;17.90;99.90;;;;;;4979867;28;20074;-41
2023/07/28 04:36:34;;;;;;;12.98;7.13;;;17.90;99.90;;;;;;4977485;28;21430;-35
2023/07/28 04:39:00;;;;;;;14.23;7.38;;;17.90;99.90;;;;;;4977152;28;20112;-36
2023/07/28 04:41:25;;;;;;;19.90;7.65;;;17.90;99.90;;;;;;4980412;28;20691;-36
2023/07/28 04:43:51;;;;;;;15.05;7.18;;;17.90;99.90;;;;;;4979864;28;20046;-36
2023/07/28 04:46:17;;;;;;;16.88;7.82;;;17.90;99.90;;;;;;4980863;28;20050;-36
2023/07/28 04:48:43;;;;;;;17.45;7.63;;;18.00;99.90;;;;;;4979959;28;20054;-36
2023/07/28 04:51:08;;;;;;;13.15;7.05;;;18.00;99.90;;;;;;4987528;28;20066;-35
2023/07/28 04:53:34;;;;;;;12.70;6.60;;;18.00;99.90;;;;;;4986638;28;20435;-35
2023/07/28 04:56:00;;;;;;;12.77;6.57;;;18.00;99.90;;;;;;4986047;28;20081;-36
2023/07/28 04:58:26;;;;;;;16.98;6.65;;;18.00;99.90;;;;;;4982087;28;20046;-36
2023/07/28 05:00:51;;;;;;;12.30;6.32;;;18.00;99.90;;;;;;4983806;28;20207;-36
2023/07/28 05:03:17;;;;;;;13.75;6.75;;;18.00;99.90;;;;;;4981519;28;20058;-35
2023/07/28 05:05:44;;;;;;;14.52;7.30;;;18.00;99.90;;;;;;4992331;28;20072;-36
2023/07/28 05:08:10;;;;;;;16.02;6.95;;;18.00;99.90;;;;;;4985970;28;20519;-35
2023/07/28 05:10:35;;;;;;;13.93;7.13;;;18.00;99.90;;;;;;4981943;28;20046;-36
2023/07/28 05:13:02;;;;;;;13.25;6.38;;;18.00;99.90;;;;;;4973860;28;20083;-37
2023/07/28 05:15:29;;;;;;;17.35;7.28;;;18.00;99.90;;;;;;4978755;28;20046;-35
2023/07/28 05:17:54;;;;;;;14.95;5.88;;;18.00;99.90;;;;;;4979254;28;20046;-36
2023/07/28 05:20:20;;;;;;;15.52;6.78;;;18.00;99.90;;;;;;4981193;28;20143;-36
2023/07/28 05:22:45;;;;;;;16.08;6.40;;;18.00;99.90;;;;;;4976795;28;20370;-35
2023/07/28 05:25:11;;;;;;;18.15;6.97;;;18.00;99.90;;;;;;4983332;28;20097;-35
2023/07/28 05:27:37;;;;;;;13.55;6.65;;;18.00;99.90;;;;;;4982909;28;20129;-35
2023/07/28 05:30:03;;;;;;;17.63;6.93;;;18.00;99.90;;;;;;4982260;28;20062;-35
2023/07/28 05:32:29;;;;;;;14.10;6.88;;;18.00;99.90;;;;;;4975772;28;20465;-35
2023/07/28 05:34:55;;;;;;;13.98;6.38;;;18.00;99.90;;;;;;4982150;28;20170;-35
2023/07/28 05:37:20;;;;;;;20.63;7.57;;;17.90;99.90;;;;;;4979293;28;20046;-35
2023/07/28 05:39:46;;;;;;;17.77;6.97;;;18.00;99.90;;;;;;4982365;28;20054;-35
2023/07/28 05:42:12;;;;;;;15.35;7.20;;;18.00;99.90;;;;;;4983062;28;20062;-35
2023/07/28 05:44:37;;;;;;;13.75;7.57;;;18.10;99.90;;;;;;4983040;28;20120;-35
2023/07/28 05:47:03;;;;;;;19.20;7.30;;;18.20;99.90;;;;;;4978814;28;20058;-35
2023/07/28 05:49:30;;;;;;;15.20;7.00;;;18.20;99.90;;;;;;4977356;28;20058;-35
2023/07/28 05:51:56;;;;;;;16.75;7.63;;;18.30;99.90;;;;;;4976243;28;20069;-35
2023/07/28 05:54:21;;;;;;;16.20;6.97;;;18.40;99.90;;;;;;4982933;28;20078;-34
2023/07/28 05:56:47;;;;;;;16.33;7.68;;;18.40;99.90;;;;;;4983097;28;20169;-34
2023/07/28 05:59:13;;;;;;;16.75;7.32;;;18.40;99.90;;;;;;4975940;28;20077;-35
2023/07/28 06:01:38;;;;;;;15.73;7.10;;;18.50;99.90;;;;;;4974668;28;20054;-34
2023/07/28 06:04:04;;;;;;;12.93;7.05;;;18.50;99.90;;;;;;4975783;28;20116;-34
2023/07/28 06:06:30;;;;;;;11.00;5.70;;;18.50;99.90;;;;;;4985326;28;20056;-34
2023/07/28 06:08:55;;;;;;;10.57;5.55;;;18.50;99.90;;;;;;4983035;28;20141;-34
2023/07/28 06:11:21;;;;;;;12.80;6.25;;;18.60;99.90;;;;;;4983434;28;20172;-34
2023/07/28 06:13:47;;;;;;;12.57;6.05;;;18.70;99.90;;;;;;4982505;28;20157;-34
2023/07/28 06:16:14;;;;;;;9.52;4.68;;;18.70;99.90;;;;;;4983449;28;20058;-34
2023/07/28 06:18:40;;;;;;;7.97;5.03;;;18.80;99.90;;;;;;4980449;28;20058;-35
2023/07/28 06:21:05;;;;;;;11.68;5.13;;;18.80;99.90;;;;;;4978279;28;20403;-35
2023/07/28 06:23:31;;;;;;;12.75;5.22;;;18.70;99.90;;;;;;4980337;28;20050;-35
2023/07/28 06:25:57;;;;;;;12.10;6.32;;;18.70;99.90;;;;;;4983556;28;20054;-36
2023/07/28 06:28:22;;;;;;;16.40;6.40;;;18.80;99.90;;;;;;4983183;28;21609;-35
2023/07/28 06:30:57;;;;;;;13.43;5.90;;;18.80;99.90;;;;;;4983340;28;20145;-35
2023/07/28 06:33:23;;;;;;;13.13;6.15;;;18.90;99.90;;;;;;4984366;28;20053;-35
2023/07/28 06:35:49;;;;;;;16.45;6.97;;;18.90;99.90;;;;;;4982160;28;20062;-35
2023/07/28 06:38:15;;;;;;;11.38;6.00;;;19.00;99.90;;;;;;4983046;28;20522;-35
2023/07/28 06:40:41;;;;;;;10.23;6.03;;;19.00;99.90;;;;;;4983488;28;20050;-35
2023/07/28 06:43:07;;;;;;;15.35;6.72;;;19.00;99.90;;;;;;4983572;28;20056;-35
2023/07/28 06:45:33;;;;;;;14.18;6.28;;;19.10;99.90;;;;;;4983542;28;20156;-35
2023/07/28 06:47:58;;;;;;;9.88;5.03;;;19.20;99.90;;;;;;4985565;28;20126;-36
2023/07/28 06:50:24;;;;;;;7.88;4.72;;;19.20;99.90;;;;;;4985362;28;20058;-36
2023/07/28 06:52:50;;;;;;;12.10;5.25;;;19.30;99.90;;;;;;4983337;28;20050;-35
2023/07/28 06:55:16;;;;;;;11.90;5.03;;;19.30;99.90;;;;;;4986477;28;20050;-35
2023/07/28 06:57:42;;;;;;;8.55;4.60;;;19.40;99.90;;;;;;4979507;28;20161;-36
2023/07/28 07:00:09;;;;;;;11.10;4.78;;;19.40;99.90;;;;;;4984899;28;20082;-36
2023/07/28 07:02:35;;;;;;;10.77;5.07;;;19.30;99.90;;;;;;4989158;28;20054;-36
2023/07/28 07:05:01;;;;;;;11.45;4.88;;;19.40;99.90;;;;;;4982930;28;20066;-35
2023/07/28 07:07:27;;;;;;;7.88;5.20;;;19.40;99.90;;;;;;4981139;28;20141;-36
2023/07/28 07:09:52;;;;;;;9.18;4.03;;;19.40;99.90;;;;;;4986307;28;20125;-35
2023/07/28 07:12:19;;;;;;;10.70;5.03;;;19.40;99.90;;;;;;4981116;28;20054;-36
2023/07/28 07:14:45;;;;;;;8.90;4.75;;;19.50;99.90;;;;;;4985133;28;20057;-35
2023/07/28 07:17:10;;;;;;;9.77;4.40;;;19.50;99.90;;;;;;4986992;28;20042;-36
2023/07/28 07:19:36;;;;;;;9.45;4.38;;;19.50;99.90;;;;;;4984528;28;20446;-43
2023/07/28 07:22:02;;;;;;;10.68;4.57;;;19.50;99.90;;;;;;4985068;28;20488;-36
2023/07/28 07:24:28;;;;;;;9.88;5.82;;;19.60;99.90;;;;;;4984660;28;20046;-35
2023/07/28 07:26:54;;;;;;;9.60;4.53;;;19.70;99.90;;;;;;4987394;28;20050;-35
2023/07/28 07:29:20;;;;;;;11.20;4.68;;;19.80;99.90;;;;;;4989872;28;20054;-35
2023/07/28 07:31:45;;;;;;;7.07;3.50;;;19.90;99.90;;;;;;4985125;28;20516;-35
2023/07/28 07:34:11;;;;;;;6.47;3.33;;;19.90;99.90;;;;;;4989959;28;20054;-35
2023/07/28 07:36:37;;;;;;;5.80;3.40;;;20.00;99.90;;;;;;4978715;28;20054;-36
2023/07/28 07:39:04;;;;;;;8.30;3.30;;;20.00;99.90;;;;;;4982810;28;20516;-35
2023/07/28 07:41:30;;;;;;;8.00;3.40;;;20.00;99.90;;;;;;4987411;28;20177;-36
2023/07/28 07:43:56;;;;;;;7.43;3.20;;;20.10;99.90;;;;;;4987398;28;20478;-35
2023/07/28 07:46:23;;;;;;;6.13;3.50;;;20.10;99.90;;;;;;4988058;28;20054;-35
2023/07/28 07:48:49;;;;;;;7.05;4.43;;;20.20;99.90;;;;;;4981737;28;20148;-35
2023/07/28 07:51:15;;;;;;;7.18;3.40;;;20.20;99.90;;;;;;4981248;28;20106;-35
2023/07/28 07:53:41;;;;;;;7.57;3.42;;;20.10;99.90;;;;;;4988186;28;20069;-35
2023/07/28 07:56:08;;;;;;;8.80;4.28;;;20.10;99.90;;;;;;4974865;28;20239;-36
2023/07/28 07:58:33;;;;;;;8.52;3.70;;;20.20;99.90;;;;;;4982420;28;20415;-38
2023/07/28 08:00:59;;;;;;;8.85;3.80;;;20.30;99.90;;;;;;4978670;28;20042;-37
2023/07/28 08:03:25;;;;;;;6.18;3.42;;;20.40;99.90;;;;;;4982550;28;20081;-37
2023/07/28 08:05:51;;;;;;;6.93;3.47;;;20.50;99.90;;;;;;4989225;28;20453;-38
2023/07/28 08:08:19;;;;;;;5.95;3.65;;;20.70;99.90;;;;;;4983122;28;20526;-38
2023/07/28 08:10:45;;;;;;;10.48;4.38;;;20.80;99.90;;;;;;4979431;28;20145;-37
2023/07/28 08:13:11;;;;;;;11.15;4.75;;;20.80;99.90;;;;;;4985434;28;20088;-37
2023/07/28 08:15:37;;;;;;;11.63;5.32;;;20.80;99.90;;;;;;4980891;28;20435;-36
2023/07/28 08:18:02;;;;;;;12.05;4.80;;;20.80;99.90;;;;;;4980573;28;20054;-37
2023/07/28 08:20:28;;;;;;;10.18;5.47;;;20.70;99.90;;;;;;4985364;28;20052;-38
2023/07/28 08:22:54;;;;;;;11.90;4.95;;;20.70;99.90;;;;;;4981152;28;20125;-38
2023/07/28 08:25:20;;;;;;;8.43;4.57;;;20.70;99.90;;;;;;4981898;28;20060;-36
2023/07/28 08:27:45;;;;;;;12.93;5.13;;;20.80;99.90;;;;;;4978986;28;20303;-52
2023/07/28 08:30:11;;;;;;;10.45;5.20;;;20.80;99.90;;;;;;4971604;28;20058;-37
2023/07/28 08:32:37;;;;;;;10.02;4.93;;;20.80;99.90;;;;;;4980547;28;20079;-37
2023/07/28 08:35:03;;;;;;;7.90;4.13;;;20.80;99.90;;;;;;4985447;28;20184;-37
2023/07/28 08:37:29;;;;;;;7.88;4.50;;;20.80;99.90;;;;;;4990376;28;20046;-38
2023/07/28 08:39:55;;;;;;;10.43;4.53;;;20.90;99.90;;;;;;4984022;28;20050;-36
2023/07/28 08:42:23;;;;;;;6.57;3.55;;;20.90;99.90;;;;;;4989362;28;20409;-38
2023/07/28 08:44:52;;;;;;;12.27;3.92;;;21.00;99.90;;;;;;4989205;28;20053;-38
2023/07/28 08:47:18;;;;;;;9.02;4.22;;;21.10;99.90;;;;;;4986159;28;20408;-37
2023/07/28 08:49:44;;;;;;;9.27;4.47;;;21.10;99.90;;;;;;4989258;28;20081;-37
2023/07/28 08:52:10;;;;;;;8.63;4.45;;;21.20;99.90;;;;;;4995058;28;20070;-37
2023/07/28 08:54:35;;;;;;;6.55;3.55;;;21.20;99.90;;;;;;4986461;28;20054;-37
2023/07/28 08:57:02;;;;;;;6.97;3.58;;;21.30;99.90;;;;;;4982719;28;20085;-37
2023/07/28 08:59:28;;;;;;;8.02;4.25;;;21.30;99.90;;;;;;4987327;28;20073;-37
2023/07/28 09:01:57;;;;;;;6.38;3.60;;;21.50;99.90;;;;;;4982467;28;20077;-38
2023/07/28 09:04:24;;;;;;;10.32;4.78;;;21.80;99.90;;;;;;4986642;28;20054;-37
2023/07/28 09:06:50;;;;;;;8.73;4.10;;;21.80;99.90;;;;;;4985746;28;20491;-37
2023/07/28 09:09:17;;;;;;;8.27;4.43;;;21.60;99.90;;;;;;4980929;28;20494;-38
2023/07/28 09:12:01;;;;;;;7.82;4.32;;;21.40;99.90;;;;;;4982959;28;20153;-37
2023/07/28 09:14:27;;;;;;;8.02;4.53;;;21.30;99.90;;;;;;4982536;28;20093;-37
2023/07/28 09:16:53;;;;;;;8.50;4.15;;;21.40;99.90;;;;;;4988267;28;20069;-36
2023/07/28 09:19:20;;;;;;;8.93;4.20;;;21.50;99.90;;;;;;4980247;28;20104;-36
2023/07/28 09:22:01;;;;;;;5.47;2.90;;;21.80;99.90;;;;;;4981917;28;20053;-37
2023/07/28 09:24:33;;;;;;;8.60;3.65;;;21.90;99.90;;;;;;4987968;28;20474;-37
2023/07/28 09:27:00;;;;;;;6.45;3.63;;;22.00;99.90;;;;;;4986210;28;20046;-37
2023/07/28 09:29:30;;;;;;;9.20;4.60;;;22.00;99.90;;;;;;4988511;28;20062;-36
2023/07/28 09:32:06;;;;;;;8.80;4.32;;;21.90;99.90;;;;;;4986747;28;20492;-36
2023/07/28 09:34:35;;;;;;;12.02;5.30;;;21.80;99.90;;;;;;4986772;28;20360;-37
2023/07/28 09:37:00;;;;;;;10.93;5.50;;;21.70;99.90;;;;;;4983528;28;20050;-37
2023/07/28 09:39:27;;;;;;;10.25;5.45;;;21.60;99.90;;;;;;4983651;28;20427;-36
2023/07/28 09:41:57;;;;;;;10.60;5.25;;;21.60;99.90;;;;;;4986240;28;20046;-37
2023/07/28 09:44:23;;;;;;;7.80;4.35;;;21.60;99.90;;;;;;4987250;28;20142;-36
2023/07/28 09:46:53;;;;;;;11.55;5.25;;;21.70;99.90;;;;;;4985830;28;20129;-37
2023/07/28 09:49:24;;;;;;;8.80;4.63;;;21.80;99.90;;;;;;4984816;28;20121;-43
2023/07/28 09:51:54;;;;;;;8.98;4.45;;;21.70;99.90;;;;;;4985260;28;20101;-36
2023/07/28 09:54:29;;;;;;;19.00;4.53;;;21.60;99.90;;;;;;4986362;28;20062;-37
2023/07/28 09:56:59;;;;;;;7.47;3.70;;;21.60;99.90;;;;;;4985725;28;20055;-36
2023/07/28 09:59:35;;;;;;;7.25;4.47;;;21.50;99.90;;;;;;4985072;28;20046;-36
2023/07/28 10:02:01;;;;;;;7.63;4.35;;;21.70;99.90;;;;;;4985743;28;20057;-37
2023/07/28 10:04:27;;;;;;;6.35;3.72;;;21.70;99.90;;;;;;4985056;28;20050;-37
2023/07/28 10:06:56;;;;;;;9.20;4.78;;;21.70;99.90;;;;;;4986550;28;20057;-37
2023/07/28 10:09:25;;;;;;;7.82;4.20;;;21.70;99.90;;;;;;4985276;28;20130;-38
2023/07/28 10:11:52;;;;;;;8.32;4.20;;;21.60;99.90;;;;;;4986726;28;20058;-37
2023/07/28 10:14:44;;;;;;;8.43;4.35;;;21.70;99.90;;;;;;4986628;28;20425;-37
2023/07/28 10:17:16;;;;;;;6.63;3.88;;;21.80;99.90;;;;;;4987974;28;20496;-37
2023/07/28 10:19:43;;;;;;;;;;;22.00;99.90;;;;;;4987412;28;20054;-37
2023/07/28 10:22:10;;;;;;;6.63;3.90;;;22.00;99.90;;;;;;4988996;28;20347;-37
2023/07/28 10:24:56;;;;;;;9.68;4.07;;;21.80;99.90;;;;;;4982809;28;20096;-37
2023/07/28 10:27:36;;;;;;;7.60;4.45;;;21.70;99.90;;;;;;4988174;28;20050;-37
2023/07/28 10:30:04;;;;;;;7.75;4.13;;;21.80;99.90;;;;;;4987960;28;20057;-37
2023/07/28 10:32:43;;;;;;;8.48;4.25;;;21.80;99.90;;;;;;4988833;28;20491;-37
2023/07/28 10:35:31;;;;;;;7.78;4.63;;;21.70;99.90;;;;;;4988446;28;20054;-37
2023/07/28 10:37:58;;;;;;;8.07;4.38;;;21.70;99.90;;;;;;4987144;28;20078;-37
2023/07/28 10:40:30;;;;;;;7.28;4.70;;;21.60;99.90;;;;;;4987076;28;20042;-37
2023/07/28 10:42:57;;;;;;;7.85;3.75;;;21.70;99.90;;;;;;4980043;28;20080;-37
2023/07/28 10:45:25;;;;;;;6.50;3.42;;;21.50;99.90;;;;;;4987613;28;20089;-37
2023/07/28 10:47:55;;;;;;;6.60;3.58;;;21.50;99.90;;;;;;4982134;28;20069;-36
2023/07/28 10:50:21;;;;;;;8.48;3.53;;;21.60;99.90;;;;;;4977597;28;20086;-37
2023/07/28 10:52:46;;;;;;;8.85;3.80;;;21.70;99.90;;;;;;4984687;28;20531;-37
2023/07/28 10:55:14;;;;;;;5.43;3.05;;;21.80;99.90;;;;;;4982746;28;20042;-36
2023/07/28 10:57:42;;;;;;;7.15;3.08;;;21.70;99.90;;;;;;4979714;28;20046;-45
2023/07/28 11:00:08;;;;;;;7.38;3.30;;;21.80;99.90;;;;;;4984977;28;20054;-37
2023/07/28 11:02:37;;;;;;;7.55;3.58;;;21.90;99.90;;;;;;4982186;28;20055;-37
2023/07/28 11:05:07;;;;;;;6.10;3.30;;;22.00;99.90;;;;;;4976886;28;20054;-37
2023/07/28 11:07:32;;;;;;;6.38;3.10;;;22.10;99.90;;;;;;4975302;28;20082;-37
2023/07/28 11:10:01;;;;;;;8.13;3.15;;;22.20;99.90;;;;;;4980433;28;20105;-37
2023/07/28 11:12:27;;;;;;;5.35;3.75;;;22.50;99.90;;;;;;4978887;28;20456;-37
2023/07/28 11:14:53;;;;;;;5.60;2.90;;;22.70;99.90;;;;;;4972917;28;20050;-37
2023/07/28 11:17:18;;;;;;;4.40;2.35;;;22.80;99.90;;;;;;4988550;28;20061;-37
2023/07/28 11:19:44;;;;;;;5.32;2.80;;;23.00;99.90;;;;;;4986116;28;20058;-37
2023/07/28 11:22:09;;;;;;;6.72;2.78;;;23.10;99.90;;;;;;4987584;28;20050;-37
2023/07/28 11:24:35;;;;;;;6.28;2.92;;;23.10;99.90;;;;;;4986328;28;20050;-37
2023/07/28 11:27:02;;;;;;;5.72;2.45;;;23.20;99.90;;;;;;4982558;28;20117;-37
2023/07/28 11:29:28;;;;;;;6.93;2.28;;;23.40;99.90;;;;;;4990605;28;20051;-37
2023/07/28 11:31:54;;;;;;;6.05;2.90;;;23.70;99.90;;;;;;4988553;28;20531;-40
2023/07/28 11:34:19;;;;;;;5.40;2.70;;;23.80;99.90;;;;;;4984219;28;20042;-37
2023/07/28 11:36:45;;;;;;;5.15;2.50;;;23.70;99.90;;;;;;4982655;28;20050;-37
2023/07/28 11:39:11;;;;;;;3.78;2.35;;;23.60;99.90;;;;;;4985779;28;20054;-37
2023/07/28 11:41:38;;;;;;;4.75;2.60;;;23.50;99.90;;;;;;4987766;28;20061;-37
2023/07/28 11:44:05;;;;;;;4.65;2.20;;;23.30;99.90;;;;;;4985781;28;20058;-35
2023/07/28 11:46:41;;;;;;;4.75;2.55;;;23.30;99.90;;;;;;4985337;28;20054;-35
2023/07/28 11:49:24;;;;;;;5.38;2.60;;;23.50;99.90;;;;;;4986353;28;20068;-36
2023/07/28 11:51:55;;;;;;;5.88;2.45;;;23.50;99.90;;;;;;4983850;28;20146;-36
2023/07/28 11:54:25;;;;;;;3.97;2.05;;;23.60;99.90;;;;;;4987667;28;20514;-35
2023/07/28 11:56:55;;;;;;;4.93;2.20;;;23.50;99.90;;;;;;4983487;28;20426;-35
2023/07/28 11:59:21;;;;;;;4.00;2.05;;;23.30;99.90;;;;;;4989059;28;20116;-36
2023/07/28 12:01:59;;;;;;;2.67;1.42;;;23.20;99.90;;;;;;4987971;28;20470;-35
2023/07/28 12:04:30;;;;;;;3.78;1.98;;;23.20;99.90;;;;;;4989369;28;20054;-36
2023/07/28 12:07:11;;;;;;;4.13;1.63;;;23.20;99.90;;;;;;4985799;28;20058;-36
2023/07/28 12:09:46;;;;;;;4.53;2.05;;;23.50;99.90;;;;;;4985383;28;20309;-36
2023/07/28 12:12:15;;;;;;;2.38;1.63;;;23.80;99.90;;;;;;4985158;28;20097;-36
2023/07/28 12:14:41;;;;;;;4.97;2.10;;;24.10;99.90;;;;;;4986163;28;20077;-36
2023/07/28 12:17:15;;;;;;;3.75;2.25;;;24.20;99.90;;;;;;4983448;28;20120;-36
2023/07/28 12:20:01;;;;;;;3.08;2.00;;;24.30;99.90;;;;;;4980817;28;20173;-36
2023/07/28 12:22:27;;;;;;;3.38;2.00;;;24.40;99.90;;;;;;4980100;28;20162;-36
2023/07/28 12:24:53;;;;;;;4.90;2.40;;;24.30;99.90;;;;;;4982737;28;20055;-36
2023/07/28 12:27:24;;;;;;;4.78;2.10;;;24.30;99.90;;;;;;4979089;28;20065;-35
2023/07/28 12:29:51;;;;;;;3.95;1.90;;;24.10;99.90;;;;;;4984717;28;20050;-37
2023/07/28 12:32:17;;;;;;;3.10;2.10;;;24.00;99.90;;;;;;4979517;28;20547;-40
2023/07/28 12:34:42;;;;;;;3.30;2.20;;;24.10;99.90;;;;;;4987107;28;20170;-36
2023/07/28 12:37:08;;;;;;;5.03;2.58;;;24.00;99.90;;;;;;4983776;28;20054;-36
2023/07/28 12:39:40;;;;;;;4.70;2.25;;;24.00;99.90;;;;;;4991058;28;20073;-36